Flight Track Log - Related Links

Times and Time Zones

All times are in EDT time to prevent confusion due to time zone crossing. See the N302SJ flight status page for this flight to view local times or setup timezone preferences in your user account.

Time Position Orientation Groundspeed Altitude Reporting Facility
EDT Latitude Longitude Course Direction KTS MPH feet Rate Location/Type
Sun 12:11:21 PM 34.0189 -78.0722 347° North 224 258 8,100  Level Washington Center
Sun 12:12:22 PM 34.0831 -78.0917 346° North 229 264 10,300 2,231 Climbing Washington Center
Sun 12:13:22 PM 34.1472 -78.1139 344° North 236 272 12,600 2,085 Climbing Washington Center
Sun 12:14:20 PM 34.2075 -78.1358 343° North 241 277 14,400 1,932 Climbing Washington Center
Sun 12:15:20 PM 34.2736 -78.1553 346° North 241 277 16,400 1,686 Climbing Washington Center
Sun 12:16:00 PM 34.3604 -78.2131 346° North  Level FlightAware Approximate
Sun 12:16:21 PM 34.3419 -78.1803 343° North 246 283 17,800  Level Washington Center
Sun 12:17:21 PM 34.4208 -78.2053 345° North 263 303 18,100 885 Climbing Washington Center
Sun 12:18:23 PM 34.5058 -78.2333 345° North 292 336 19,600 1,513 Climbing Washington Center
Sun 12:19:20 PM 34.5867 -78.2586 346° North 297 342 21,100 1,282 Climbing Washington Center
Sun 12:20:20 PM 34.6694 -78.2864 345° North 297 342 22,100 496 Climbing Washington Center
Sun 12:21:21 PM 34.7583 -78.3197 343° North 308 354 22,100  Level Washington Center
Sun 12:22:21 PM 34.8558 -78.3458 348° North 332 382 22,100  Level Washington Center
Sun 12:23:22 PM 34.9511 -78.3794 344° North 347 399 22,100  Level Washington Center
Sun 12:24:23 PM 35.0503 -78.4108 345° North 359 413 22,100 -51 Level Washington Center
Sun 12:25:20 PM 35.1475 -78.4472 343° North 359 413 22,000 -50 Descending Washington Center
Sun 12:26:22 PM 35.2469 -78.4786 346° North 359 413 22,000  Level Washington Center
Sun 12:27:22 PM 35.3483 -78.5128 345° North 359 413 22,000 51 Level Washington Center
Sun 12:28:20 PM 35.4561 -78.5500 344° North 366 421 22,100  Climbing Washington Center
Sun 12:29:21 PM 35.5492 -78.5789 346° North 372 428 22,000 -49 Descending Washington Center
Sun 12:30:22 PM 35.6589 -78.6189 344° North 372 428 22,000  Level Washington Center
Sun 12:31:20 PM 35.7539 -78.6531 344° North 367 422 22,000 50 Level Washington Center
Sun 12:32:21 PM 35.8553 -78.6853 346° North 367 422 22,100  Climbing Washington Center
Sun 12:33:22 PM 35.9525 -78.7225 343° North 367 422 22,000 -50 Descending Washington Center
Sun 12:34:22 PM 36.0517 -78.7547 345° North 367 422 22,000  Level Washington Center
Sun 12:35:20 PM 36.1489 -78.7894 344° North 367 422 22,000 -303 Level Washington Center
Sun 12:36:21 PM 36.2522 -78.8244 345° North 362 417 21,400 -590 Descending Washington Center
Sun 12:37:22 PM 36.3556 -78.8622 344° North 375 432 20,800 -1,008 Descending Washington Center
Sun 12:38:20 PM 36.4528 -78.8947 345° North 375 432 19,400 -1,373 Descending Washington Center
Sun 12:39:20 PM 36.5478 -78.9247 346° North 363 418 18,100 -1,200 Descending Washington Center
Sun 12:40:20 PM 36.6386 -78.9597 343° North 347 399 17,000 -1,240 Descending Washington Center
Sun 12:41:21 PM 36.7131 -78.9836 346° North 332 382 15,600 -1,770 Descending Washington Center
Sun 12:42:22 PM 36.8017 -79.0211 341° North 312 359 13,400 -2,100 Descending Washington Center
Sun 12:43:21 PM 36.8711 -79.0736 329° Northwest 298 343 11,400 -2,100 Descending Washington Center
Sun 12:44:22 PM 36.9383 -79.1339 324° Northwest 292 336 9,200 -2,168 Descending Washington Center
Sun 12:45:20 PM 37.0033 -79.1914 325° Northwest 292 336 7,100 -2,186 Descending Washington Center
Sun 12:46:20 PM 37.0561 -79.2433 322° Northwest 280 322 4,900 -2,000 Descending Washington Center
Sun 12:47:20 PM 37.1083 -79.3031 318° Northwest 267 307 3,100 -942 Descending Washington Center
Sun 12:48:21 PM 37.1667 -79.3111 354° North 221 254 3,000 -50 Descending Washington Center
Sun 12:49:21 PM 37.2092 -79.2792 31° Northeast 154 177 3,000 -198 Level Washington Center
Sun 12:50:22 PM 37.2453 -79.2575 26° Northeast 148 170 2,600 -393 Descending Washington Center
Sun 12:52:00 PM 37.3167 -79.2000 338° Northwest  Level FlightAware Approximate
Sun 12:59:00 PM 37.3254 -79.2012 338° Northwest  Level Estimated
Sun 01:00:00 PM 37.3254 -79.2012 338° Northwest  Level Estimated
Sun 01:01:00 PM 37.3254 -79.2012 338° Northwest  Level Estimated

Login

Don't have an account? Register now (free) for customized features, flight alerts, and more!